Time;durP1;ratioP1;P1;durP2;ratioP2;P2;SDS_P1;SDS_P2;PMS_P1;PMS_P2;Temp;Humidity;BMP_temperature;BMP_pressure;BME280_temperature;BME280_humidity;BME280_pressure;Samples;Min_cycle;Max_cycle;Signal;HPM_P1;HPM_P2
2023/01/20 00:00:10;;;;;;;3.55;1.63;;;0.60;99.90;;;;;;5039441;28;20045;-84
2023/01/20 00:02:56;;;;;;;11.18;1.95;;;0.60;99.90;;;;;;5035701;28;20102;-79
2023/01/20 00:05:51;;;;;;;25.45;3.53;;;0.60;99.90;;;;;;5050463;28;20057;-79
2023/01/20 00:08:38;;;;;;;6.38;1.77;;;0.70;99.90;;;;;;5050251;28;20099;-83
2023/01/20 00:11:25;;;;;;;6.63;2.20;;;0.70;99.90;;;;;;5049353;28;20048;-78
2023/01/20 00:14:11;;;;;;;5.22;2.35;;;0.70;99.90;;;;;;5051241;28;20065;-79
2023/01/20 00:16:58;;;;;;;11.05;3.53;;;0.70;99.90;;;;;;5050247;28;20049;-79
2023/01/20 00:19:44;;;;;;;5.90;2.78;;;0.80;99.90;;;;;;5050654;28;20535;-79
2023/01/20 00:22:31;;;;;;;13.20;3.83;;;0.90;99.90;;;;;;5056478;28;20049;-78
2023/01/20 00:25:17;;;;;;;7.85;3.28;;;0.80;99.90;;;;;;5050481;28;20067;-78
2023/01/20 00:28:04;;;;;;;6.93;3.15;;;0.90;99.90;;;;;;5032428;28;20493;-78
2023/01/20 00:30:50;;;;;;;8.15;3.10;;;0.90;99.90;;;;;;5049494;28;20114;-82
2023/01/20 00:33:36;;;;;;;7.40;3.20;;;0.90;99.90;;;;;;5036028;28;20088;-81
2023/01/20 00:36:23;;;;;;;7.63;3.47;;;0.80;99.90;;;;;;5049967;28;20075;-79
2023/01/20 00:39:10;;;;;;;10.15;4.43;;;0.80;99.90;;;;;;5051853;28;20046;-77
2023/01/20 00:41:56;;;;;;;9.30;4.00;;;0.70;99.90;;;;;;5054275;28;20044;-78
2023/01/20 00:44:42;;;;;;;11.15;4.82;;;0.70;99.90;;;;;;5050208;28;20072;-81
2023/01/20 00:47:28;;;;;;;10.80;5.18;;;0.70;99.90;;;;;;5049222;28;20048;-77
2023/01/20 00:50:15;;;;;;;10.85;5.63;;;0.60;99.90;;;;;;5035053;28;20051;-80
2023/01/20 00:53:01;;;;;;;13.77;6.20;;;0.60;99.90;;;;;;5036843;28;20106;-78
2023/01/20 00:55:47;;;;;;;13.38;6.68;;;0.60;99.90;;;;;;5054423;28;20057;-79
2023/01/20 00:58:33;;;;;;;10.65;6.05;;;0.60;99.90;;;;;;5043152;28;20045;-78
2023/01/20 01:01:20;;;;;;;10.23;5.82;;;0.60;99.90;;;;;;5055537;28;20109;-78
2023/01/20 01:04:06;;;;;;;10.13;5.88;;;0.60;99.90;;;;;;5039291;28;20053;-79
2023/01/20 01:06:52;;;;;;;11.38;6.55;;;0.60;99.90;;;;;;5054365;28;20064;-81
2023/01/20 01:09:38;;;;;;;15.50;6.72;;;0.60;99.90;;;;;;5053869;28;20386;-78
2023/01/20 01:12:24;;;;;;;13.80;6.85;;;0.50;99.90;;;;;;5053333;28;20049;-79
2023/01/20 01:15:11;;;;;;;13.57;7.25;;;0.50;99.90;;;;;;5053735;28;20052;-79
2023/01/20 01:17:58;;;;;;;14.43;6.93;;;0.50;99.90;;;;;;5058340;28;20049;-77
2023/01/20 01:20:44;;;;;;;14.07;7.63;;;0.50;99.90;;;;;;5053966;28;20052;-78
2023/01/20 01:23:30;;;;;;;13.73;6.95;;;0.50;99.90;;;;;;5054045;28;20052;-77
2023/01/20 01:26:16;;;;;;;14.30;7.65;;;0.50;99.90;;;;;;5053481;28;20134;-82
2023/01/20 01:29:02;;;;;;;15.07;7.88;;;0.50;99.90;;;;;;5053357;28;20060;-78
2023/01/20 01:31:48;;;;;;;18.08;7.80;;;0.50;99.90;;;;;;5034928;28;20049;-78
2023/01/20 01:34:34;;;;;;;17.33;8.20;;;0.50;99.90;;;;;;5021518;28;20096;-84
2023/01/20 01:37:20;;;;;;;12.85;7.47;;;0.40;99.90;;;;;;5059903;28;20045;-77
2023/01/20 01:40:08;;;;;;;15.75;8.48;;;0.40;99.90;;;;;;5052329;28;20059;-77
2023/01/20 01:42:54;;;;;;;15.90;9.57;;;0.40;99.90;;;;;;5034735;28;20049;-80
2023/01/20 01:45:40;;;;;;;16.38;8.98;;;0.40;99.90;;;;;;5052584;28;20134;-78
2023/01/20 01:48:32;;;;;;;15.63;8.85;;;0.40;99.90;;;;;;5038686;28;20056;-78
2023/01/20 01:51:23;;;;;;;17.88;9.32;;;0.30;99.90;;;;;;5052929;28;20078;-78
2023/01/20 01:54:24;;;;;;;27.40;9.27;;;0.40;99.90;;;;;;5050905;28;20090;-78
2023/01/20 01:57:11;;;;;;;17.00;8.65;;;0.30;99.90;;;;;;5053501;28;20080;-83
2023/01/20 01:59:57;;;;;;;19.65;9.95;;;0.40;99.90;;;;;;5051905;28;20075;-77
2023/01/20 02:02:44;;;;;;;16.63;8.48;;;0.30;99.90;;;;;;5051494;28;20404;-79
2023/01/20 02:05:31;;;;;;;18.80;8.95;;;0.30;99.90;;;;;;5021723;28;20195;-77
2023/01/20 02:08:18;;;;;;;20.77;9.85;;;0.30;99.90;;;;;;5038662;28;20068;-77
2023/01/20 02:11:05;;;;;;;17.10;8.48;;;0.30;99.90;;;;;;5036639;28;20079;-83
2023/01/20 02:13:51;;;;;;;17.60;9.30;;;0.30;99.90;;;;;;5054818;28;20048;-80
2023/01/20 02:16:59;;;;;;;16.73;8.32;;;0.30;99.90;;;;;;5052977;28;20052;-76
2023/01/20 02:20:06;;;;;;;18.45;9.57;;;0.30;99.90;;;;;;5051342;28;20409;-77
2023/01/20 02:23:10;;;;;;;19.00;8.93;;;0.30;99.90;;;;;;5052342;28;20053;-78
2023/01/20 02:26:11;;;;;;;16.27;8.82;;;0.30;99.90;;;;;;5052390;28;20115;-80
2023/01/20 02:29:22;;;;;;;16.42;8.38;;;0.20;99.90;;;;;;5035815;28;20049;-76
2023/01/20 02:32:35;;;;;;;18.25;8.63;;;0.20;99.90;;;;;;5035066;28;20488;-76
2023/01/20 02:35:31;;;;;;;14.48;7.78;;;0.20;99.90;;;;;;5037381;28;20048;-77
2023/01/20 02:38:48;;;;;;;16.30;8.10;;;0.20;99.90;;;;;;5050904;28;20036;-84
2023/01/20 02:42:00;;;;;;;13.30;7.35;;;0.20;99.90;;;;;;5052161;28;20472;-78
2023/01/20 02:45:21;;;;;;;15.45;7.70;;;0.20;99.90;;;;;;5037033;28;20127;-78
2023/01/20 02:48:20;;;;;;;17.17;7.63;;;0.20;99.90;;;;;;5056187;28;20052;-79
2023/01/20 02:51:46;;;;;;;14.27;7.15;;;0.20;99.90;;;;;;5052392;28;20063;-83
2023/01/20 02:54:35;;;;;;;13.20;7.07;;;0.20;99.90;;;;;;5052578;28;20193;-76
2023/01/20 02:57:30;;;;;;;12.48;7.18;;;0.20;99.90;;;;;;5051117;28;20053;-83
2023/01/20 03:00:40;;;;;;;13.50;6.72;;;0.20;99.90;;;;;;5052269;28;20451;-80
2023/01/20 03:03:35;;;;;;;18.17;8.07;;;0.20;99.90;;;;;;5052109;28;20151;-82
2023/01/20 03:06:24;;;;;;;12.85;6.85;;;0.20;99.90;;;;;;5057150;28;20049;-78
2023/01/20 03:09:14;;;;;;;13.20;6.82;;;0.20;99.90;;;;;;5052412;28;20055;-76
2023/01/20 03:12:08;;;;;;;14.25;7.15;;;0.20;99.90;;;;;;5033346;28;20511;-77
2023/01/20 03:14:54;;;;;;;18.45;7.25;;;0.20;99.90;;;;;;5051722;28;20475;-79
2023/01/20 03:17:40;;;;;;;14.73;6.72;;;0.20;99.90;;;;;;5034877;28;20076;-76
2023/01/20 03:20:26;;;;;;;14.25;7.35;;;0.30;99.90;;;;;;5036299;28;20601;-79
2023/01/20 03:23:13;;;;;;;13.27;6.75;;;0.20;99.90;;;;;;5057065;28;20052;-76
2023/01/20 03:26:02;;;;;;;14.90;7.40;;;0.20;99.90;;;;;;5036999;28;20052;-76
2023/01/20 03:28:49;;;;;;;14.82;7.35;;;0.20;99.90;;;;;;5051451;28;20099;-76
2023/01/20 03:31:39;;;;;;;14.88;7.45;;;0.30;99.90;;;;;;5051640;28;20044;-76
2023/01/20 03:34:29;;;;;;;12.30;7.00;;;0.30;99.90;;;;;;5050425;28;20501;-77
2023/01/20 03:37:15;;;;;;;15.30;7.85;;;0.20;99.90;;;;;;5051185;28;20095;-76
2023/01/20 03:40:16;;;;;;;16.83;8.90;;;0.20;99.90;;;;;;5016773;28;20049;-78
2023/01/20 03:43:16;;;;;;;19.13;8.10;;;0.20;99.90;;;;;;5058537;28;20053;-80
2023/01/20 03:46:09;;;;;;;13.65;7.30;;;0.20;99.90;;;;;;5051331;28;20497;-76
2023/01/20 03:49:16;;;;;;;17.08;8.65;;;0.20;99.90;;;;;;5051276;28;20055;-78
2023/01/20 03:52:15;;;;;;;16.52;7.95;;;0.20;99.90;;;;;;5050956;28;20049;-76
2023/01/20 03:55:10;;;;;;;15.73;8.30;;;0.20;99.90;;;;;;5050989;28;20048;-77
2023/01/20 03:58:26;;;;;;;17.27;8.77;;;0.20;99.90;;;;;;5053488;28;20051;-81
2023/01/20 04:01:13;;;;;;;18.95;8.45;;;0.20;99.90;;;;;;5053293;28;20109;-79
2023/01/20 04:04:01;;;;;;;18.63;8.80;;;0.20;99.90;;;;;;5055058;28;20049;-78
2023/01/20 04:06:49;;;;;;;18.83;8.90;;;0.20;99.90;;;;;;5032758;28;20103;-77
2023/01/20 04:09:39;;;;;;;17.27;9.93;;;0.20;99.90;;;;;;5036558;28;20060;-78
2023/01/20 04:12:25;;;;;;;23.23;10.52;;;0.20;99.90;;;;;;5050664;28;20489;-79
2023/01/20 04:15:12;;;;;;;25.65;10.65;;;0.20;99.90;;;;;;5031982;28;20063;-81
2023/01/20 04:18:16;;;;;;;20.25;10.88;;;0.20;99.90;;;;;;5049238;28;20541;-78
2023/01/20 04:21:02;;;;;;;19.52;10.85;;;0.10;99.90;;;;;;5050846;28;20060;-77
2023/01/20 04:23:56;;;;;;;24.65;11.10;;;0.10;99.90;;;;;;5040971;28;20048;-80
2023/01/20 04:26:42;;;;;;;22.30;11.65;;;0.00;99.90;;;;;;5053431;28;20113;-78
2023/01/20 04:29:28;;;;;;;26.27;11.35;;;-0.10;99.90;;;;;;5054061;28;20537;-78
2023/01/20 04:32:14;;;;;;;25.33;11.75;;;-0.10;99.90;;;;;;5053594;28;20130;-78
2023/01/20 04:35:00;;;;;;;28.92;13.80;;;-0.20;99.90;;;;;;5054371;28;20045;-80
2023/01/20 04:37:46;;;;;;;29.20;15.13;;;-0.20;99.90;;;;;;5053445;28;20052;-82
2023/01/20 04:40:32;;;;;;;31.20;14.93;;;-0.20;99.90;;;;;;5053043;28;20586;-78
2023/01/20 04:43:18;;;;;;;28.63;14.27;;;-0.20;99.90;;;;;;5059143;28;20048;-81
2023/01/20 04:46:04;;;;;;;31.30;15.40;;;-0.20;99.90;;;;;;5052924;28;20048;-78
2023/01/20 04:48:51;;;;;;;33.17;15.35;;;-0.30;99.90;;;;;;5053141;28;20488;-78
2023/01/20 04:51:37;;;;;;;35.53;17.00;;;-0.30;99.90;;;;;;5054198;28;20045;-80
2023/01/20 04:54:23;;;;;;;34.33;16.75;;;-0.30;99.90;;;;;;5056562;28;20052;-83
2023/01/20 04:57:09;;;;;;;33.88;17.75;;;-0.30;99.90;;;;;;5034990;28;20061;-80
2023/01/20 04:59:55;;;;;;;35.03;17.95;;;-0.30;99.90;;;;;;5054524;28;20106;-79
2023/01/20 05:02:41;;;;;;;38.33;17.50;;;-0.30;99.90;;;;;;5057285;28;20054;-81
2023/01/20 05:05:27;;;;;;;38.50;18.52;;;-0.30;99.90;;;;;;5023488;28;20088;-78
2023/01/20 05:08:13;;;;;;;35.28;17.90;;;-0.40;99.90;;;;;;5052369;28;20099;-80
2023/01/20 05:10:59;;;;;;;38.53;18.60;;;-0.40;99.90;;;;;;5036732;28;20123;-78
2023/01/20 05:13:45;;;;;;;42.60;19.58;;;-0.40;99.90;;;;;;5053729;28;20049;-77
2023/01/20 05:16:32;;;;;;;38.80;19.27;;;-0.40;99.90;;;;;;5052485;28;20084;-79
2023/01/20 05:19:19;;;;;;;43.10;20.80;;;-0.50;99.90;;;;;;5052079;28;20045;-84
2023/01/20 05:22:04;;;;;;;56.63;24.85;;;-0.40;99.90;;;;;;5059615;28;20052;-77
2023/01/20 05:24:51;;;;;;;63.95;26.65;;;-0.40;99.90;;;;;;5038663;28;20052;-78
2023/01/20 05:27:37;;;;;;;75.32;25.85;;;-0.40;99.90;;;;;;5053049;28;20059;-78
2023/01/20 05:30:23;;;;;;;126.35;32.25;;;-0.40;99.90;;;;;;5052194;28;20049;-83
2023/01/20 05:33:09;;;;;;;156.90;32.20;;;-0.30;99.90;;;;;;5052139;28;20562;-82
2023/01/20 05:35:55;;;;;;;170.05;33.15;;;-0.30;99.90;;;;;;5053927;28;20052;-81
2023/01/20 05:38:41;;;;;;;167.93;37.65;;;-0.20;99.90;;;;;;5040518;28;20055;-80
2023/01/20 05:41:27;;;;;;;154.82;33.13;;;-0.10;99.90;;;;;;5057921;28;20502;-81
2023/01/20 05:44:14;;;;;;;140.00;35.03;;;-0.10;99.90;;;;;;5052662;28;20485;-81
2023/01/20 05:47:01;;;;;;;252.50;44.45;;;-0.10;99.90;;;;;;5034464;28;20056;-81
2023/01/20 05:49:47;;;;;;;216.70;37.30;;;0.00;99.90;;;;;;5051609;28;20079;-84
2023/01/20 05:52:33;;;;;;;282.15;43.40;;;0.00;99.90;;;;;;5052219;28;20053;-81
2023/01/20 05:55:19;;;;;;;239.88;37.05;;;0.00;99.90;;;;;;5032950;28;20099;-83
2023/01/20 05:58:06;;;;;;;185.95;35.60;;;0.00;99.90;;;;;;5058984;28;20045;-79
2023/01/20 06:00:53;;;;;;;205.95;36.83;;;0.10;99.90;;;;;;5041001;28;20091;-76
2023/01/20 06:03:39;;;;;;;271.00;43.67;;;0.10;99.90;;;;;;5053859;28;20044;-81
2023/01/20 06:06:25;;;;;;;283.95;47.10;;;0.10;99.90;;;;;;5053502;28;20382;-78
2023/01/20 06:09:11;;;;;;;210.18;34.83;;;0.10;99.90;;;;;;5052469;28;20056;-82
2023/01/20 06:11:57;;;;;;;188.85;35.85;;;0.10;99.90;;;;;;5034576;28;20485;-79
2023/01/20 06:14:43;;;;;;;210.90;39.30;;;0.10;99.90;;;;;;5052556;28;20049;-79
2023/01/20 06:17:29;;;;;;;179.07;35.00;;;0.10;99.90;;;;;;5053147;28;20056;-78
2023/01/20 06:20:16;;;;;;;163.07;33.33;;;0.10;99.90;;;;;;5057572;28;20064;-81
2023/01/20 06:23:02;;;;;;;164.35;34.60;;;0.20;99.90;;;;;;5051721;28;20057;-76
2023/01/20 06:25:56;;;;;;;190.98;38.55;;;0.20;99.90;;;;;;5052786;28;20511;-81
2023/01/20 06:28:42;;;;;;;189.85;36.88;;;0.10;99.90;;;;;;5037124;28;20144;-80
2023/01/20 06:31:28;;;;;;;208.50;40.40;;;0.10;99.90;;;;;;5057205;28;20111;-79
2023/01/20 06:34:14;;;;;;;227.18;38.20;;;0.10;99.90;;;;;;5038831;28;20049;-80
2023/01/20 06:37:01;;;;;;;184.43;34.75;;;0.10;99.90;;;;;;5060726;28;20052;-82
2023/01/20 06:39:47;;;;;;;255.20;41.53;;;0.10;99.90;;;;;;5057192;28;20056;-82
2023/01/20 06:42:33;;;;;;;205.23;38.20;;;0.10;99.90;;;;;;5045223;28;20064;-77
2023/01/20 06:45:19;;;;;;;196.05;35.78;;;0.10;99.90;;;;;;5040688;28;20791;-79
2023/01/20 06:48:05;;;;;;;184.70;33.38;;;0.10;99.90;;;;;;5053485;28;20041;-77
2023/01/20 06:50:51;;;;;;;216.65;37.97;;;0.10;99.90;;;;;;5039781;28;20049;-78
2023/01/20 06:53:37;;;;;;;146.20;31.02;;;0.10;99.90;;;;;;5038709;28;20102;-79
2023/01/20 06:56:24;;;;;;;168.45;33.95;;;0.10;99.90;;;;;;5034044;28;20053;-79
2023/01/20 06:59:11;;;;;;;180.90;34.05;;;0.10;99.90;;;;;;5055042;28;20124;-81
2023/01/20 07:01:57;;;;;;;130.45;31.30;;;0.10;99.90;;;;;;5051212;28;20048;-79
2023/01/20 07:04:43;;;;;;;153.93;31.95;;;0.10;99.90;;;;;;5049080;28;20045;-78
2023/01/20 07:07:29;;;;;;;164.95;34.80;;;0.10;99.90;;;;;;5035340;28;20059;-80
2023/01/20 07:10:15;;;;;;;154.10;34.55;;;0.10;99.90;;;;;;5051474;28;20048;-79
2023/01/20 07:13:01;;;;;;;161.50;38.42;;;0.10;99.90;;;;;;5031766;28;20045;-76
2023/01/20 07:15:47;;;;;;;100.95;31.13;;;0.10;99.90;;;;;;5050589;28;20045;-84
2023/01/20 07:18:33;;;;;;;103.80;33.33;;;0.10;99.90;;;;;;5054478;28;20063;-80
2023/01/20 07:21:20;;;;;;;97.40;29.67;;;0.10;99.90;;;;;;5049197;28;20183;-80
2023/01/20 07:24:08;;;;;;;87.55;30.63;;;0.10;99.90;;;;;;5050648;28;20049;-81
2023/01/20 07:26:54;;;;;;;80.20;27.23;;;0.10;99.90;;;;;;5032242;28;20053;-79
2023/01/20 07:29:40;;;;;;;88.18;29.23;;;0.20;99.90;;;;;;5051114;28;20129;-85
2023/01/20 07:32:29;;;;;;;92.70;31.50;;;0.20;99.90;;;;;;5021971;28;20132;-78
2023/01/20 07:35:15;;;;;;;80.32;29.13;;;0.20;99.90;;;;;;5050432;28;20084;-80
2023/01/20 07:38:03;;;;;;;86.18;27.63;;;0.20;99.90;;;;;;5049845;28;20080;-77
2023/01/20 07:40:49;;;;;;;82.05;28.08;;;0.20;99.90;;;;;;5049493;28;20049;-79
2023/01/20 07:43:35;;;;;;;76.25;28.70;;;0.20;99.90;;;;;;5049911;28;20037;-83
2023/01/20 07:46:21;;;;;;;86.63;30.05;;;0.20;99.90;;;;;;5051209;28;20048;-83
2023/01/20 07:49:07;;;;;;;101.70;32.17;;;0.20;99.90;;;;;;5052233;28;20132;-85
2023/01/20 07:51:53;;;;;;;81.75;30.00;;;0.30;99.90;;;;;;5057115;28;20911;-83
2023/01/20 07:54:39;;;;;;;86.72;29.83;;;0.30;99.90;;;;;;5056787;28;20048;-80
2023/01/20 07:57:29;;;;;;;82.40;29.77;;;0.30;99.90;;;;;;5050168;28;20041;-80
2023/01/20 08:00:19;;;;;;;75.65;28.60;;;0.30;99.90;;;;;;5048791;28;20049;-78
2023/01/20 08:03:05;;;;;;;85.00;29.92;;;0.30;99.90;;;;;;5051413;28;20053;-77
2023/01/20 08:05:51;;;;;;;86.05;31.50;;;0.30;99.90;;;;;;5050953;28;20061;-76
2023/01/20 08:08:37;;;;;;;92.93;32.45;;;0.30;99.90;;;;;;5033273;28;20074;-76
2023/01/20 08:11:23;;;;;;;99.50;35.03;;;0.40;99.90;;;;;;5049250;28;20048;-79
2023/01/20 08:14:10;;;;;;;90.15;31.40;;;0.40;99.90;;;;;;5050691;28;20493;-80
2023/01/20 08:16:56;;;;;;;94.15;31.77;;;0.40;99.90;;;;;;5051227;28;20045;-79
2023/01/20 08:19:42;;;;;;;96.07;35.00;;;0.40;99.90;;;;;;5031820;28;20057;-85
2023/01/20 08:22:28;;;;;;;85.88;32.30;;;0.40;99.90;;;;;;5032503;28;20501;-81
2023/01/20 08:25:14;;;;;;;85.18;30.80;;;0.40;99.90;;;;;;5049776;28;20784;-81
2023/01/20 08:28:00;;;;;;;100.10;33.03;;;0.40;99.90;;;;;;5034876;28;20080;-78
2023/01/20 08:30:46;;;;;;;101.47;34.92;;;0.40;99.90;;;;;;5031808;28;20041;-80
2023/01/20 08:33:32;;;;;;;100.30;35.35;;;0.40;99.90;;;;;;5032677;28;20433;-78
2023/01/20 08:36:23;;;;;;;94.70;33.63;;;0.40;99.90;;;;;;5032607;28;20060;-81
2023/01/20 08:39:12;;;;;;;107.55;35.47;;;0.50;99.90;;;;;;5050231;28;20057;-83
2023/01/20 08:41:58;;;;;;;93.72;33.88;;;0.50;99.90;;;;;;5050552;28;20075;-77
2023/01/20 08:44:45;;;;;;;95.80;34.90;;;0.50;99.90;;;;;;5056714;28;20112;-77
2023/01/20 08:47:35;;;;;;;89.00;33.17;;;0.50;99.90;;;;;;5050413;28;20084;-79
2023/01/20 08:50:22;;;;;;;85.72;31.98;;;0.50;99.90;;;;;;5037522;28;20041;-84
2023/01/20 08:53:08;;;;;;;84.03;33.10;;;0.60;99.90;;;;;;5051610;28;20045;-77
2023/01/20 08:55:56;;;;;;;79.22;29.83;;;0.60;99.90;;;;;;5053363;28;20056;-81
2023/01/20 08:58:43;;;;;;;83.05;31.15;;;0.50;99.90;;;;;;5040071;28;20053;-79
2023/01/20 09:01:36;;;;;;;71.47;30.20;;;0.60;99.90;;;;;;5055554;28;20110;-77
2023/01/20 09:04:22;;;;;;;85.63;33.45;;;0.60;99.90;;;;;;5042674;28;20053;-77
2023/01/20 09:07:11;;;;;;;76.97;31.02;;;0.60;99.90;;;;;;5057003;28;20045;-77
2023/01/20 09:09:57;;;;;;;87.68;32.05;;;0.60;99.90;;;;;;5054992;28;20049;-77
2023/01/20 09:12:43;;;;;;;90.50;32.40;;;0.60;99.90;;;;;;5039264;28;20045;-78
2023/01/20 09:15:29;;;;;;;85.10;31.95;;;0.60;99.90;;;;;;5057563;28;20053;-81
2023/01/20 09:18:15;;;;;;;79.32;30.65;;;0.70;99.90;;;;;;5042254;28;20430;-78
2023/01/20 09:21:05;;;;;;;84.60;30.15;;;0.70;99.90;;;;;;5041891;28;20052;-77
2023/01/20 09:23:51;;;;;;;79.95;30.80;;;0.70;99.90;;;;;;5060697;28;20045;-77
2023/01/20 09:26:37;;;;;;;74.70;30.40;;;0.70;99.90;;;;;;5043733;28;20110;-81
2023/01/20 09:29:24;;;;;;;85.43;32.47;;;0.80;99.90;;;;;;5058168;28;20056;-80
2023/01/20 09:32:11;;;;;;;65.53;25.35;;;0.80;99.90;;;;;;5054230;28;20451;-77
2023/01/20 09:34:57;;;;;;;76.65;28.95;;;0.80;99.90;;;;;;5042084;28;20049;-77
2023/01/20 09:45:02;;;;;;;75.70;31.30;;;0.80;99.90;;;;;;5035638;28;20057;-77
2023/01/20 09:47:49;;;;;;;82.72;30.63;;;0.90;99.90;;;;;;5034214;28;20052;-77
2023/01/20 09:54:04;;;;;;;78.32;30.08;;;0.90;99.90;;;;;;5053340;28;20052;-77
2023/01/20 09:56:53;;;;;;;80.18;29.15;;;0.90;99.90;;;;;;5052180;28;20045;-77
2023/01/20 09:59:52;;;;;;;76.90;30.60;;;1.00;99.90;;;;;;5038681;28;20095;-83
2023/01/20 10:02:40;;;;;;;71.63;26.35;;;1.00;99.90;;;;;;5052519;28;20049;-76
2023/01/20 10:05:38;;;;;;;74.80;27.60;;;1.00;99.90;;;;;;5034230;28;20057;-78
2023/01/20 10:08:35;;;;;;;71.75;27.30;;;1.00;99.90;;;;;;5054985;28;20092;-79
2023/01/20 10:11:21;;;;;;;70.47;26.58;;;1.00;99.90;;;;;;5041798;28;20044;-81
2023/01/20 10:14:33;;;;;;;71.10;26.30;;;1.10;99.90;;;;;;5058817;28;20132;-85
2023/01/20 10:17:50;;;;;;;64.57;25.52;;;1.10;99.90;;;;;;5052255;28;20057;-79
2023/01/20 10:20:45;;;;;;;68.32;27.38;;;1.10;99.90;;;;;;5035094;28;20049;-82
2023/01/20 10:23:42;;;;;;;71.20;28.08;;;1.10;99.90;;;;;;5052551;28;20532;-79
2023/01/20 10:26:38;;;;;;;74.72;26.55;;;1.20;99.90;;;;;;5052644;28;20056;-78
2023/01/20 10:30:12;;;;;;;61.67;25.17;;;1.20;99.90;;;;;;5051696;28;20112;-78
2023/01/20 10:33:10;;;;;;;73.15;27.92;;;1.20;99.90;;;;;;4974339;28;20519;-81
2023/01/20 10:35:59;;;;;;;65.22;25.48;;;1.20;99.90;;;;;;5035249;28;20045;-78
2023/01/20 10:39:00;;;;;;;65.28;27.90;;;1.30;99.90;;;;;;5034738;28;20527;-78
2023/01/20 10:41:51;;;;;;;62.15;27.98;;;1.30;99.90;;;;;;5050326;28;20037;-80
2023/01/20 10:44:38;;;;;;;64.15;25.63;;;1.30;99.90;;;;;;5051992;28;20057;-79
2023/01/20 10:47:27;;;;;;;72.50;27.20;;;1.30;99.90;;;;;;5052077;28;20045;-80
2023/01/20 10:50:27;;;;;;;65.65;27.27;;;1.30;99.90;;;;;;5052321;28;20053;-82
2023/01/20 10:53:32;;;;;;;68.03;25.77;;;1.30;99.90;;;;;;5050744;28;20052;-79
2023/01/20 10:56:18;;;;;;;66.18;27.08;;;1.30;99.90;;;;;;5050948;28;20106;-85
2023/01/20 10:59:15;;;;;;;66.28;25.08;;;1.40;99.90;;;;;;5050430;28;20045;-83
2023/01/20 11:02:12;;;;;;;58.40;25.00;;;1.30;99.90;;;;;;5051542;28;20111;-79
2023/01/20 11:05:01;;;;;;;62.22;24.65;;;1.40;99.90;;;;;;5050140;28;20372;-81
2023/01/20 11:07:49;;;;;;;61.78;25.90;;;1.40;99.90;;;;;;5033724;28;20045;-77
2023/01/20 11:10:35;;;;;;;59.25;25.00;;;1.50;99.90;;;;;;5040885;28;20056;-79
2023/01/20 11:13:21;;;;;;;59.28;26.52;;;1.50;99.90;;;;;;5053441;28;20044;-79
2023/01/20 11:16:24;;;;;;;57.72;24.48;;;1.50;99.90;;;;;;5050355;28;20045;-78
2023/01/20 11:19:10;;;;;;;61.25;23.42;;;1.60;99.90;;;;;;5037739;28;20045;-82
2023/01/20 11:22:09;;;;;;;58.67;23.55;;;1.60;99.90;;;;;;5036245;28;20547;-78
2023/01/20 11:24:58;;;;;;;49.67;21.60;;;1.60;99.90;;;;;;5052065;28;20091;-79
2023/01/20 11:27:45;;;;;;;52.08;22.55;;;1.70;99.90;;;;;;5050117;28;20055;-80
2023/01/20 11:30:33;;;;;;;57.08;24.50;;;1.70;99.90;;;;;;5051031;28;20057;-79
2023/01/20 11:33:23;;;;;;;51.40;22.55;;;1.70;99.90;;;;;;5034047;28;20063;-78
2023/01/20 11:36:22;;;;;;;57.65;24.73;;;1.80;99.90;;;;;;5051319;28;20049;-78
2023/01/20 11:39:27;;;;;;;55.50;23.98;;;1.80;99.90;;;;;;5050613;28;20047;-80
2023/01/20 11:42:24;;;;;;;54.95;22.08;;;1.80;99.90;;;;;;5051776;28;20056;-76
2023/01/20 11:45:25;;;;;;;54.53;21.15;;;1.80;99.90;;;;;;5052255;28;20049;-78
2023/01/20 11:48:14;;;;;;;46.13;19.33;;;1.80;99.90;;;;;;5051934;28;20489;-80
2023/01/20 11:51:00;;;;;;;44.95;19.52;;;1.80;99.90;;;;;;5050603;28;20049;-79
2023/01/20 11:53:47;;;;;;;48.30;19.83;;;1.80;99.90;;;;;;5036244;28;20487;-82
2023/01/20 11:56:44;;;;;;;47.80;19.15;;;1.80;99.90;;;;;;5033288;28;20060;-78
2023/01/20 11:59:34;;;;;;;45.42;22.10;;;1.80;99.90;;;;;;5051735;28;20111;-83
2023/01/20 12:02:23;;;;;;;46.35;20.38;;;1.90;99.90;;;;;;5049987;28;20113;-81
2023/01/20 12:05:16;;;;;;;60.10;21.50;;;1.90;99.90;;;;;;5051484;28;20056;-78
2023/01/20 12:08:04;;;;;;;49.30;21.40;;;1.90;99.90;;;;;;5049518;28;20057;-78
2023/01/20 12:10:50;;;;;;;40.72;18.13;;;1.90;99.90;;;;;;5051928;28;20051;-81
2023/01/20 12:17:32;;;;;;;38.55;16.98;;;2.00;99.90;;;;;;4988010;28;20057;-79
2023/01/20 12:20:55;;;;;;;39.95;16.33;;;2.00;99.90;;;;;;4989475;28;20081;-79
2023/01/20 12:23:53;;;;;;;46.05;19.38;;;2.00;99.90;;;;;;5051349;28;20041;-80
2023/01/20 12:26:39;;;;;;;44.40;18.40;;;2.00;99.90;;;;;;5051509;28;20062;-78
2023/01/20 12:29:37;;;;;;;50.55;20.60;;;2.00;99.90;;;;;;5050652;28;20156;-78
2023/01/20 12:32:23;;;;;;;49.42;19.42;;;2.00;99.90;;;;;;5031076;28;20055;-78
2023/01/20 12:35:15;;;;;;;50.13;18.92;;;2.00;99.90;;;;;;5018592;28;20057;-80
2023/01/20 12:38:18;;;;;;;44.97;18.55;;;2.10;99.90;;;;;;5050247;28;20107;-77
2023/01/20 12:41:12;;;;;;;46.80;17.90;;;2.10;99.90;;;;;;5049578;28;20052;-78
2023/01/20 12:44:22;;;;;;;48.38;20.17;;;2.10;99.90;;;;;;5050497;28;20444;-78
2023/01/20 12:47:32;;;;;;;41.75;19.63;;;2.10;99.90;;;;;;5051951;28;20110;-80
2023/01/20 12:50:27;;;;;;;50.95;22.13;;;2.10;99.90;;;;;;5054656;28;20049;-80
2023/01/20 12:53:48;;;;;;;45.03;20.17;;;2.20;99.90;;;;;;5053926;28;20052;-80
2023/01/20 12:57:03;;;;;;;51.08;21.38;;;2.20;99.90;;;;;;5039567;28;20291;-82
2023/01/20 13:00:00;;;;;;;48.63;21.15;;;2.20;99.90;;;;;;5022665;28;20068;-81
2023/01/20 13:03:07;;;;;;;49.00;21.05;;;2.20;99.90;;;;;;5052820;28;20067;-81
2023/01/20 13:06:09;;;;;;;52.88;21.17;;;2.10;99.90;;;;;;5035817;28;20060;-77
2023/01/20 13:09:07;;;;;;;48.03;21.67;;;2.10;99.90;;;;;;5054074;28;20118;-82
2023/01/20 13:11:53;;;;;;;49.72;21.75;;;2.10;99.90;;;;;;5040570;28;20064;-82
2023/01/20 13:14:46;;;;;;;46.67;20.42;;;2.10;99.90;;;;;;5062782;28;20106;-78
2023/01/20 13:17:47;;;;;;;46.88;20.20;;;2.00;99.90;;;;;;5065077;28;20053;-81
2023/01/20 13:20:37;;;;;;;50.67;20.27;;;2.00;99.90;;;;;;5045611;28;20084;-78
2023/01/20 13:23:36;;;;;;;50.38;19.67;;;2.00;99.90;;;;;;5057828;28;20053;-83
2023/01/20 13:26:22;;;;;;;49.05;19.80;;;2.00;99.90;;;;;;5052408;28;20057;-82
2023/01/20 13:29:19;;;;;;;44.55;19.75;;;1.90;99.90;;;;;;5053263;28;20057;-79
2023/01/20 13:32:27;;;;;;;46.35;21.33;;;2.00;99.90;;;;;;5053798;28;20059;-79
2023/01/20 13:35:26;;;;;;;51.25;21.38;;;2.00;99.90;;;;;;5053693;28;20186;-82
2023/01/20 13:38:20;;;;;;;47.65;21.02;;;1.90;99.90;;;;;;5022087;28;20412;-83
2023/01/20 13:41:06;;;;;;;40.72;18.95;;;2.00;99.90;;;;;;5053576;28;20056;-78
2023/01/20 13:43:52;;;;;;;48.92;20.33;;;1.90;99.90;;;;;;5057501;28;20045;-78
2023/01/20 13:46:43;;;;;;;41.90;20.60;;;1.90;99.90;;;;;;5059918;28;20359;-84
2023/01/20 13:49:49;;;;;;;49.58;21.40;;;1.90;99.90;;;;;;5051291;28;20512;-80
2023/01/20 13:52:51;;;;;;;43.65;20.55;;;1.90;99.90;;;;;;5052110;28;20049;-80
2023/01/20 13:55:40;;;;;;;45.22;19.08;;;1.80;99.90;;;;;;5035165;28;20059;-80
2023/01/20 13:58:33;;;;;;;50.67;22.20;;;1.80;99.90;;;;;;5034033;28;20401;-80
2023/01/20 14:01:19;;;;;;;50.38;20.80;;;1.80;99.90;;;;;;5052399;28;20045;-80
2023/01/20 14:04:17;;;;;;;52.40;20.65;;;1.70;99.90;;;;;;5051667;28;20041;-79
2023/01/20 14:07:08;;;;;;;47.38;19.70;;;1.70;99.90;;;;;;5051906;28;20743;-81
2023/01/20 14:09:57;;;;;;;45.78;21.17;;;1.70;99.90;;;;;;5053921;28;20060;-78
2023/01/20 14:12:43;;;;;;;48.20;20.35;;;1.70;99.90;;;;;;5054984;28;20045;-83
2023/01/20 14:15:34;;;;;;;48.13;21.80;;;1.70;99.90;;;;;;5034810;28;20052;-81
2023/01/20 14:18:24;;;;;;;51.83;22.85;;;1.70;99.90;;;;;;5052397;28;20052;-81
2023/01/20 14:21:22;;;;;;;54.47;21.52;;;1.70;99.90;;;;;;5052599;28;20559;-77
2023/01/20 14:24:32;;;;;;;50.53;21.58;;;1.60;99.90;;;;;;5050935;28;20045;-78
2023/01/20 14:27:40;;;;;;;47.88;20.27;;;1.60;99.90;;;;;;5052982;28;20113;-77
2023/01/20 14:30:26;;;;;;;49.58;20.70;;;1.60;99.90;;;;;;5017249;28;20498;-79
2023/01/20 14:33:15;;;;;;;45.45;20.10;;;1.60;99.90;;;;;;5032480;28;20498;-81
2023/01/20 14:36:06;;;;;;;49.50;21.83;;;1.60;99.90;;;;;;5033626;28;20602;-79
2023/01/20 14:38:55;;;;;;;43.33;19.70;;;1.70;99.90;;;;;;5032830;28;20177;-79
2023/01/20 14:41:48;;;;;;;46.78;21.13;;;1.70;99.90;;;;;;5032160;28;20048;-78
2023/01/20 14:44:34;;;;;;;43.28;19.45;;;1.70;99.90;;;;;;5013796;28;20136;-78
2023/01/20 14:47:23;;;;;;;50.38;20.33;;;1.70;99.90;;;;;;5032300;28;20414;-78
2023/01/20 14:50:18;;;;;;;43.05;19.73;;;1.70;99.90;;;;;;5013807;28;20576;-81
2023/01/20 14:53:04;;;;;;;51.72;21.35;;;1.70;99.90;;;;;;5014376;28;20057;-80